Time;durP1;ratioP1;P1;durP2;ratioP2;P2;SDS_P1;SDS_P2;PMS_P1;PMS_P2;Temp;Humidity;BMP_temperature;BMP_pressure;BME280_temperature;BME280_humidity;BME280_pressure;Samples;Min_cycle;Max_cycle;Signal;HPM_P1;HPM_P2
2023/01/28 00:02:35;;;;;;;4.13;3.73;;;3.50;99.90;;;;;;10350521;28;20276;-68
2023/01/28 00:07:36;;;;;;;6.10;4.03;;;3.50;99.90;;;;;;10344505;28;20347;-68
2023/01/28 00:12:36;;;;;;;4.53;3.57;;;3.50;99.90;;;;;;10350527;28;20357;-69
2023/01/28 00:17:37;;;;;;;5.43;4.00;;;3.50;99.90;;;;;;10346396;28;20221;-68
2023/01/28 00:22:37;;;;;;;4.93;4.00;;;3.50;99.90;;;;;;10339982;28;20257;-68
2023/01/28 00:27:38;;;;;;;7.03;4.60;;;3.50;99.90;;;;;;10344519;28;20220;-68
2023/01/28 00:32:39;;;;;;;7.23;4.80;;;3.50;99.90;;;;;;10352001;28;20214;-68
2023/01/28 00:37:40;;;;;;;5.97;4.67;;;3.40;99.90;;;;;;10354486;28;20221;-68
2023/01/28 00:42:41;;;;;;;4.80;3.97;;;3.40;99.90;;;;;;10346780;28;20551;-68
2023/01/28 00:47:43;;;;;;;4.20;3.50;;;3.40;99.90;;;;;;10351843;28;20228;-67
2023/01/28 00:52:44;;;;;;;4.53;3.17;;;3.40;99.90;;;;;;10346456;28;20222;-67
2023/01/28 00:57:45;;;;;;;3.90;3.33;;;3.40;99.90;;;;;;10346751;28;20221;-67
2023/01/28 01:02:45;;;;;;;3.43;3.03;;;3.30;99.90;;;;;;10342036;28;20216;-68
2023/01/28 01:07:46;;;;;;;3.23;2.73;;;3.30;99.90;;;;;;10350576;28;20224;-68
2023/01/28 01:12:48;;;;;;;5.60;3.00;;;3.30;99.90;;;;;;10345107;28;20221;-68
2023/01/28 01:17:49;;;;;;;3.67;3.37;;;3.30;99.90;;;;;;10349842;28;20232;-69
2023/01/28 01:22:50;;;;;;;4.93;3.30;;;3.30;99.90;;;;;;10354563;28;20236;-68
2023/01/28 01:27:50;;;;;;;3.93;3.30;;;3.30;99.90;;;;;;10344808;28;20988;-69
2023/01/28 01:32:51;;;;;;;4.83;3.50;;;3.30;99.90;;;;;;10350365;28;20284;-69
2023/01/28 01:37:52;;;;;;;4.17;3.27;;;3.30;99.90;;;;;;10345957;28;20570;-69
2023/01/28 01:42:52;;;;;;;3.83;3.10;;;3.20;99.90;;;;;;10338706;28;20882;-68
2023/01/28 01:47:53;;;;;;;4.37;3.53;;;3.30;99.90;;;;;;10347125;28;20241;-67
2023/01/28 01:52:57;;;;;;;4.20;2.73;;;3.20;99.90;;;;;;10345044;28;20268;-67
2023/01/28 01:58:02;;;;;;;4.77;3.23;;;3.20;99.90;;;;;;10340574;28;20243;-68
2023/01/28 02:03:03;;;;;;;5.20;3.60;;;3.20;99.90;;;;;;10345031;28;20229;-67
2023/01/28 02:13:29;;;;;;;4.17;3.30;;;3.10;99.90;;;;;;10350679;28;20649;-70
2023/01/28 02:18:31;;;;;;;4.40;3.50;;;3.10;99.90;;;;;;10356255;28;20263;-67
2023/01/28 02:23:31;;;;;;;4.43;3.43;;;3.10;99.90;;;;;;10349015;28;20217;-67
2023/01/28 02:28:53;;;;;;;5.80;3.87;;;3.10;99.90;;;;;;10350840;28;20253;-68
2023/01/28 02:34:26;;;;;;;4.43;3.70;;;3.10;99.90;;;;;;10365346;28;20216;-67
2023/01/28 02:39:35;;;;;;;4.30;3.90;;;3.10;99.90;;;;;;10328680;28;20260;-67
2023/01/28 02:44:35;;;;;;;4.77;3.87;;;3.00;99.90;;;;;;10353463;28;20232;-69
2023/01/28 02:49:43;;;;;;;5.20;3.97;;;3.00;99.90;;;;;;10348004;28;20689;-68
2023/01/28 02:55:06;;;;;;;4.23;3.83;;;3.00;99.90;;;;;;10355702;28;20395;-68
2023/01/28 03:00:13;;;;;;;5.03;3.60;;;3.00;99.90;;;;;;10353565;28;20213;-67
2023/01/28 03:05:40;;;;;;;5.37;4.10;;;3.00;99.90;;;;;;10350872;28;20244;-67
2023/01/28 03:10:41;;;;;;;4.67;3.70;;;3.00;99.90;;;;;;10335826;28;20221;-68
2023/01/28 03:37:41;;;;;;;4.53;3.23;;;2.90;99.90;;;;;;10354593;28;20311;-68
2023/01/28 03:42:41;;;;;;;6.70;4.03;;;2.90;99.90;;;;;;10352683;28;20320;-68
2023/01/28 03:47:43;;;;;;;5.27;3.10;;;2.90;99.90;;;;;;10355633;28;20273;-68
2023/01/28 03:52:43;;;;;;;3.43;3.13;;;2.90;99.90;;;;;;10351896;28;20225;-68
2023/01/28 03:57:44;;;;;;;4.00;3.30;;;2.90;99.90;;;;;;10345879;28;20592;-68
2023/01/28 04:02:45;;;;;;;4.27;3.27;;;2.90;99.90;;;;;;10350787;28;20216;-68
2023/01/28 04:07:46;;;;;;;5.67;3.47;;;2.90;99.90;;;;;;10351396;28;20219;-67
2023/01/28 04:12:48;;;;;;;3.77;3.27;;;2.90;99.90;;;;;;10346761;28;20697;-68
2023/01/28 04:17:49;;;;;;;3.63;3.27;;;2.80;99.90;;;;;;10332965;28;20209;-67
2023/01/28 04:22:49;;;;;;;4.63;3.20;;;2.90;99.90;;;;;;10349944;28;20209;-68
2023/01/28 04:27:50;;;;;;;3.87;3.17;;;2.80;99.90;;;;;;10344917;28;20301;-68
2023/01/28 04:32:51;;;;;;;4.07;3.10;;;2.80;99.90;;;;;;10340339;28;20243;-68
2023/01/28 04:37:51;;;;;;;5.37;3.23;;;2.80;99.90;;;;;;10353813;28;20220;-68
2023/01/28 04:42:59;;;;;;;4.60;3.63;;;2.80;99.90;;;;;;10357373;28;20230;-67
2023/01/28 04:47:59;;;;;;;4.63;3.70;;;2.80;99.90;;;;;;10355346;28;20233;-67
2023/01/28 04:53:03;;;;;;;4.87;3.50;;;2.80;99.90;;;;;;10347439;28;20220;-67
2023/01/28 04:58:03;;;;;;;3.77;3.23;;;2.70;99.90;;;;;;10352748;28;20301;-70
2023/01/28 05:03:04;;;;;;;5.50;3.33;;;2.70;99.90;;;;;;10345972;28;20670;-68
2023/01/28 05:08:04;;;;;;;4.53;4.13;;;2.70;99.90;;;;;;10351133;28;20225;-67
2023/01/28 05:13:05;;;;;;;4.23;3.47;;;2.80;99.90;;;;;;10343995;28;20222;-67
2023/01/28 05:18:06;;;;;;;4.27;3.60;;;2.70;99.90;;;;;;10346725;28;20432;-67
2023/01/28 05:23:06;;;;;;;5.47;3.63;;;2.70;99.90;;;;;;10343021;28;20236;-67
2023/01/28 05:28:10;;;;;;;5.40;3.80;;;2.60;99.90;;;;;;10349750;28;20225;-67
2023/01/28 05:33:10;;;;;;;7.03;3.60;;;2.60;99.90;;;;;;10343732;28;20233;-67
2023/01/28 05:38:11;;;;;;;6.80;3.67;;;2.60;99.90;;;;;;10356749;28;20232;-68
2023/01/28 05:43:11;;;;;;;5.67;4.10;;;2.60;99.90;;;;;;10350590;28;20237;-68
2023/01/28 05:48:13;;;;;;;4.43;3.23;;;2.60;99.90;;;;;;10363518;28;20236;-68
2023/01/28 05:53:14;;;;;;;6.17;3.80;;;2.70;99.90;;;;;;10352621;28;20696;-68
2023/01/28 05:58:15;;;;;;;3.93;3.00;;;2.70;99.90;;;;;;10366926;28;20614;-69
2023/01/28 06:03:15;;;;;;;4.77;3.20;;;2.70;99.90;;;;;;10351826;28;20228;-67
2023/01/28 06:08:16;;;;;;;5.47;3.20;;;2.70;99.90;;;;;;10356816;28;20237;-68
2023/01/28 06:13:16;;;;;;;7.50;3.60;;;2.70;99.90;;;;;;10333781;28;20312;-67
2023/01/28 06:18:17;;;;;;;3.63;3.10;;;2.70;99.90;;;;;;10357614;28;20224;-68
2023/01/28 06:23:17;;;;;;;5.33;3.40;;;2.70;99.90;;;;;;10349073;28;20218;-68
2023/01/28 06:28:18;;;;;;;3.40;3.10;;;2.70;99.90;;;;;;10363076;28;20225;-68
2023/01/28 06:33:20;;;;;;;5.33;3.10;;;2.70;99.90;;;;;;10358806;28;20221;-68
2023/01/28 06:38:20;;;;;;;3.67;3.07;;;2.70;99.90;;;;;;10350637;28;20273;-67
2023/01/28 06:43:26;;;;;;;5.53;3.03;;;2.70;99.90;;;;;;10355387;28;20327;-68
2023/01/28 06:48:27;;;;;;;6.83;3.20;;;2.80;99.90;;;;;;10354607;28;20299;-67
2023/01/28 06:53:28;;;;;;;3.83;3.00;;;2.80;99.90;;;;;;10350089;28;20233;-68
2023/01/28 06:58:28;;;;;;;3.60;3.13;;;2.80;99.90;;;;;;10358451;28;20222;-68
2023/01/28 07:03:29;;;;;;;4.00;3.07;;;2.80;99.90;;;;;;10357762;28;20220;-68
2023/01/28 07:08:30;;;;;;;4.20;3.10;;;2.80;99.90;;;;;;10354586;28;20235;-68
2023/01/28 07:13:30;;;;;;;5.80;3.50;;;2.80;99.90;;;;;;10331435;28;20242;-69
2023/01/28 07:18:31;;;;;;;8.50;3.30;;;2.80;99.90;;;;;;10355767;28;20221;-68
2023/01/28 07:23:31;;;;;;;6.73;3.40;;;2.80;99.90;;;;;;10337216;28;20218;-68
2023/01/28 07:28:33;;;;;;;4.30;3.20;;;2.80;99.90;;;;;;10352741;28;20253;-68
2023/01/28 07:33:33;;;;;;;4.20;3.00;;;2.90;99.90;;;;;;10348600;28;20232;-69
2023/01/28 07:38:34;;;;;;;3.70;3.30;;;2.90;99.90;;;;;;10351859;28;20228;-68
2023/01/28 07:43:34;;;;;;;3.63;3.00;;;2.90;99.90;;;;;;10354431;28;20230;-68
2023/01/28 07:48:35;;;;;;;4.57;3.20;;;2.90;99.90;;;;;;10348110;28;20779;-69
2023/01/28 07:53:36;;;;;;;3.37;3.03;;;3.00;99.90;;;;;;10353503;28;20222;-69
2023/01/28 07:58:36;;;;;;;6.37;3.40;;;3.10;99.90;;;;;;10350261;28;20218;-68
2023/01/28 08:03:37;;;;;;;5.80;3.53;;;3.10;99.90;;;;;;10350805;28;20580;-68
2023/01/28 08:08:38;;;;;;;6.00;3.00;;;3.20;99.90;;;;;;10347140;28;20786;-68
2023/01/28 08:13:39;;;;;;;5.80;3.10;;;3.20;99.90;;;;;;10349737;28;20225;-68
2023/01/28 08:18:39;;;;;;;4.10;3.07;;;3.30;99.90;;;;;;10346475;28;20250;-69
2023/01/28 08:23:40;;;;;;;4.93;2.93;;;3.20;99.90;;;;;;10350140;28;20275;-67
2023/01/28 08:28:41;;;;;;;4.53;2.70;;;3.30;99.90;;;;;;10351976;28;20225;-67
2023/01/28 08:33:41;;;;;;;4.63;2.90;;;3.30;99.90;;;;;;10349072;28;20226;-69
2023/01/28 08:38:42;;;;;;;3.43;2.90;;;3.30;99.90;;;;;;10347177;28;20226;-67
2023/01/28 08:43:43;;;;;;;3.73;3.03;;;3.30;99.90;;;;;;10351598;28;20229;-68
2023/01/28 08:48:44;;;;;;;3.87;2.93;;;3.30;99.90;;;;;;10348319;28;20321;-69
2023/01/28 08:53:44;;;;;;;4.90;3.00;;;3.40;99.90;;;;;;10347305;28;20300;-68
2023/01/28 08:58:45;;;;;;;4.03;3.30;;;3.40;99.90;;;;;;10345968;28;20256;-67
2023/01/28 09:03:45;;;;;;;3.47;2.60;;;3.50;99.90;;;;;;10354759;28;20697;-68
2023/01/28 09:08:46;;;;;;;5.03;3.07;;;3.40;99.90;;;;;;10351291;28;20237;-68
2023/01/28 09:13:46;;;;;;;5.40;2.70;;;3.50;99.90;;;;;;10329978;28;20311;-70
2023/01/28 09:18:47;;;;;;;4.77;3.10;;;3.40;99.90;;;;;;10347142;28;20244;-67
2023/01/28 09:23:48;;;;;;;3.93;3.20;;;3.40;99.90;;;;;;10346193;28;20301;-69
2023/01/28 09:28:48;;;;;;;3.37;2.60;;;3.60;99.90;;;;;;10346729;28;20275;-68
2023/01/28 09:33:55;;;;;;;8.87;3.00;;;3.70;99.90;;;;;;10349346;28;20593;-68
2023/01/28 09:38:55;;;;;;;4.43;2.80;;;3.60;99.90;;;;;;10328992;28;20229;-68
2023/01/28 09:44:12;;;;;;;3.03;2.70;;;3.60;99.90;;;;;;10345547;28;20466;-71
2023/01/28 09:49:33;;;;;;;3.90;2.70;;;3.70;99.90;;;;;;10342531;28;20236;-67
2023/01/28 09:55:08;;;;;;;3.17;2.70;;;3.80;99.90;;;;;;10334879;28;20228;-68
2023/01/28 10:00:18;;;;;;;4.23;2.80;;;3.90;99.90;;;;;;10346116;28;20230;-68
2023/01/28 10:05:27;;;;;;;5.17;3.47;;;3.90;99.90;;;;;;10350499;28;20196;-68
2023/01/28 10:10:27;;;;;;;5.57;3.53;;;3.90;99.90;;;;;;10343036;28;20944;-68
2023/01/28 10:15:52;;;;;;;3.17;2.80;;;3.90;99.90;;;;;;10350106;28;20217;-68
2023/01/28 10:21:00;;;;;;;4.67;2.80;;;4.00;99.90;;;;;;10353470;28;20222;-67
2023/01/28 10:26:08;;;;;;;6.03;3.07;;;4.10;99.90;;;;;;10338624;28;20260;-68
2023/01/28 10:31:13;;;;;;;4.77;3.40;;;4.20;99.90;;;;;;10348598;28;20753;-68
2023/01/28 10:36:14;;;;;;;3.60;2.83;;;4.20;99.90;;;;;;10356658;28;20238;-68
2023/01/28 10:41:20;;;;;;;3.93;3.20;;;4.30;99.90;;;;;;10355860;28;20598;-69
2023/01/28 10:46:31;;;;;;;4.70;2.83;;;4.40;99.90;;;;;;10347892;28;20574;-68
2023/01/28 10:51:39;;;;;;;5.20;2.83;;;4.50;99.90;;;;;;10335997;28;20229;-68
2023/01/28 10:56:42;;;;;;;4.67;3.43;;;4.60;99.90;;;;;;10353227;28;20308;-67
2023/01/28 11:01:47;;;;;;;6.83;3.30;;;4.80;99.90;;;;;;10357323;28;20235;-68
2023/01/28 11:06:54;;;;;;;3.77;2.53;;;4.90;99.90;;;;;;10353454;28;20223;-68
2023/01/28 11:11:56;;;;;;;5.37;3.20;;;4.70;99.90;;;;;;10347183;28;20325;-67
2023/01/28 11:16:57;;;;;;;8.83;3.83;;;4.70;99.90;;;;;;10352735;28;20256;-67
2023/01/28 11:21:59;;;;;;;4.27;2.43;;;4.60;99.90;;;;;;10349380;28;20689;-68
2023/01/28 11:27:13;;;;;;;4.30;2.63;;;4.50;99.90;;;;;;10353761;28;20826;-68
2023/01/28 11:32:24;;;;;;;6.17;2.87;;;4.40;99.90;;;;;;10345801;28;20621;-68
2023/01/28 11:37:27;;;;;;;6.37;3.13;;;4.50;99.90;;;;;;10344594;28;20225;-67
2023/01/28 11:42:29;;;;;;;4.87;3.30;;;4.40;99.90;;;;;;10345993;28;20234;-67
2023/01/28 11:47:51;;;;;;;3.37;2.70;;;4.40;99.90;;;;;;10352344;28;20229;-67
2023/01/28 11:53:14;;;;;;;3.23;2.90;;;4.40;99.90;;;;;;10350279;28;20260;-67
2023/01/28 11:58:46;;;;;;;2.97;2.67;;;4.30;99.90;;;;;;10349188;28;20221;-68
2023/01/28 12:04:09;;;;;;;3.17;2.80;;;4.10;99.90;;;;;;10354541;28;20296;-69
2023/01/28 12:09:45;;;;;;;5.60;3.00;;;4.20;99.90;;;;;;10354272;28;20273;-68
2023/01/28 12:14:54;;;;;;;4.43;2.90;;;4.10;99.90;;;;;;10339104;28;20618;-68
2023/01/28 12:20:16;;;;;;;6.30;3.20;;;4.00;99.90;;;;;;10358230;28;20575;-68
2023/01/28 12:25:28;;;;;;;3.83;3.07;;;4.00;99.90;;;;;;10353549;28;20672;-68
2023/01/28 12:30:48;;;;;;;4.93;3.83;;;4.00;99.90;;;;;;10352492;28;20312;-68
2023/01/28 12:36:20;;;;;;;3.60;3.30;;;4.10;99.90;;;;;;10345258;28;20224;-68
2023/01/28 12:41:27;;;;;;;3.13;2.83;;;4.20;99.90;;;;;;10349006;28;20248;-68
2023/01/28 12:46:51;;;;;;;4.07;3.07;;;4.10;99.90;;;;;;10352663;28;20361;-68
2023/01/28 12:52:00;;;;;;;4.50;3.00;;;4.00;99.90;;;;;;10351599;28;20213;-68
2023/01/28 12:57:02;;;;;;;6.07;3.57;;;3.80;99.90;;;;;;10354515;28;20230;-67
2023/01/28 13:02:12;;;;;;;3.97;3.30;;;3.80;99.90;;;;;;10354348;28;20308;-68
2023/01/28 13:07:33;;;;;;;4.57;3.20;;;3.70;99.90;;;;;;10342617;28;20256;-67
2023/01/28 13:12:37;;;;;;;7.93;4.27;;;3.60;99.90;;;;;;10344683;28;20229;-68
2023/01/28 13:17:38;;;;;;;3.13;2.83;;;3.60;99.90;;;;;;10355014;28;20279;-67
2023/01/28 13:22:38;;;;;;;3.63;2.97;;;3.60;99.90;;;;;;10343690;28;20268;-67
2023/01/28 13:27:39;;;;;;;3.70;2.97;;;3.60;99.90;;;;;;10348305;28;20224;-67
2023/01/28 13:32:39;;;;;;;3.60;2.93;;;3.60;99.90;;;;;;10344669;28;20267;-68
2023/01/28 13:37:45;;;;;;;5.33;3.03;;;3.50;99.90;;;;;;10348543;28;20686;-68
2023/01/28 13:42:58;;;;;;;4.73;3.20;;;3.50;99.90;;;;;;10346466;28;20280;-68
2023/01/28 13:48:25;;;;;;;6.63;4.50;;;3.40;99.90;;;;;;10345311;28;20267;-68
2023/01/28 13:54:03;;;;;;;3.10;2.53;;;3.40;99.90;;;;;;10350445;28;20292;-67
2023/01/28 13:59:27;;;;;;;4.10;3.37;;;3.30;99.90;;;;;;10350283;28;20229;-67
2023/01/28 14:04:37;;;;;;;3.63;3.10;;;3.30;99.90;;;;;;10351800;28;20214;-69
2023/01/28 14:09:54;;;;;;;4.87;3.20;;;3.30;99.90;;;;;;10365452;28;20229;-67
2023/01/28 14:15:22;;;;;;;3.87;3.43;;;3.20;99.90;;;;;;10352719;28;20690;-67
2023/01/28 14:20:36;;;;;;;4.33;2.43;;;3.30;99.90;;;;;;10347913;28;20234;-67
2023/01/28 14:26:31;;;;;;;3.67;3.13;;;3.30;99.90;;;;;;10354524;28;20218;-68
2023/01/28 14:31:37;;;;;;;7.20;3.00;;;3.30;99.90;;;;;;10230183;29;20255;-67
2023/01/28 14:36:40;;;;;;;3.57;2.70;;;3.40;99.90;;;;;;10319374;28;20228;-69
2023/01/28 14:41:43;;;;;;;3.10;2.67;;;3.30;99.90;;;;;;10356592;28;20700;-69
2023/01/28 14:47:17;;;;;;;2.67;2.33;;;3.20;99.90;;;;;;10347866;28;20221;-68
2023/01/28 14:52:35;;;;;;;3.07;2.60;;;3.10;99.90;;;;;;10352429;28;20672;-68
2023/01/28 14:58:00;;;;;;;3.10;2.67;;;3.00;99.90;;;;;;10349503;28;20261;-68
2023/01/28 15:03:16;;;;;;;4.93;3.03;;;3.00;99.90;;;;;;10347534;28;20221;-69
2023/01/28 15:08:21;;;;;;;4.27;3.20;;;3.00;99.90;;;;;;10358078;28;20223;-68
2023/01/28 15:13:32;;;;;;;3.07;2.70;;;3.00;99.90;;;;;;10346632;28;20249;-69
2023/01/28 15:18:44;;;;;;;4.87;2.60;;;3.00;99.90;;;;;;10353456;28;20267;-69
2023/01/28 15:23:58;;;;;;;3.20;2.90;;;3.00;99.90;;;;;;10354238;28;20221;-68
2023/01/28 15:28:59;;;;;;;5.10;3.07;;;3.00;99.90;;;;;;10354186;28;20263;-68
2023/01/28 15:34:13;;;;;;;3.10;2.50;;;3.10;99.90;;;;;;10354757;28;20218;-68
2023/01/28 15:39:21;;;;;;;3.27;2.53;;;3.00;99.90;;;;;;10345963;28;20221;-68
2023/01/28 15:44:28;;;;;;;4.90;3.07;;;2.90;99.90;;;;;;10345052;28;20226;-68
2023/01/28 15:49:35;;;;;;;4.50;3.37;;;2.80;99.90;;;;;;10350160;28;20681;-68
2023/01/28 15:54:43;;;;;;;2.93;2.70;;;2.70;99.90;;;;;;10353580;28;20248;-67
2023/01/28 15:59:46;;;;;;;4.70;3.17;;;2.70;99.90;;;;;;10350225;28;20224;-68
2023/01/28 16:05:04;;;;;;;4.27;3.10;;;2.70;99.90;;;;;;10335136;28;20218;-68
2023/01/28 16:10:05;;;;;;;4.73;3.27;;;2.70;99.90;;;;;;10350228;28;20312;-68
2023/01/28 16:15:06;;;;;;;5.67;3.33;;;2.60;99.90;;;;;;10357520;28;20232;-69
2023/01/28 16:20:18;;;;;;;4.17;3.27;;;2.60;99.90;;;;;;10366319;28;20185;-68
2023/01/28 16:25:31;;;;;;;7.67;3.43;;;2.60;99.90;;;;;;10334581;28;20194;-68
2023/01/28 16:30:32;;;;;;;7.57;3.97;;;2.60;99.90;;;;;;10345100;28;20218;-67
2023/01/28 16:35:32;;;;;;;6.63;3.80;;;2.70;99.90;;;;;;10350192;28;20216;-67
2023/01/28 16:40:33;;;;;;;4.27;3.70;;;2.60;99.90;;;;;;10350974;28;20248;-68
2023/01/28 16:45:34;;;;;;;5.00;3.67;;;2.50;99.90;;;;;;10356529;28;20220;-67
2023/01/28 16:50:39;;;;;;;5.37;4.17;;;2.50;99.90;;;;;;10343404;28;20221;-68
2023/01/28 16:55:39;;;;;;;4.33;3.73;;;2.50;99.90;;;;;;10352097;28;20214;-68
2023/01/28 17:00:40;;;;;;;4.30;3.90;;;2.50;99.90;;;;;;10344473;28;20270;-67
2023/01/28 17:05:41;;;;;;;5.27;4.00;;;2.50;99.90;;;;;;10346290;28;20240;-69
2023/01/28 17:10:42;;;;;;;7.67;4.90;;;2.50;99.90;;;;;;10346108;28;20249;-68
2023/01/28 17:15:43;;;;;;;6.30;4.43;;;2.50;99.90;;;;;;10352177;28;20210;-67
2023/01/28 17:20:43;;;;;;;4.70;4.00;;;2.40;99.90;;;;;;10347342;28;20218;-67
2023/01/28 17:25:44;;;;;;;5.67;4.07;;;2.40;99.90;;;;;;10345424;28;20229;-67
2023/01/28 17:30:44;;;;;;;7.53;4.20;;;2.40;99.90;;;;;;10347190;28;20229;-68
2023/01/28 17:35:47;;;;;;;6.30;4.87;;;2.40;99.90;;;;;;10346983;28;20225;-67
2023/01/28 17:40:47;;;;;;;5.93;4.43;;;2.50;99.90;;;;;;10354167;28;20225;-67
2023/01/28 17:45:49;;;;;;;5.83;4.27;;;2.40;99.90;;;;;;10354380;28;20221;-68
2023/01/28 17:50:55;;;;;;;7.23;4.50;;;2.40;99.90;;;;;;10355906;28;20230;-68
2023/01/28 17:55:58;;;;;;;5.83;3.90;;;2.30;99.90;;;;;;10344224;28;20230;-69
2023/01/28 18:01:07;;;;;;;8.23;4.87;;;2.30;99.90;;;;;;10355423;28;20240;-67
2023/01/28 18:06:07;;;;;;;5.50;4.57;;;2.30;99.90;;;;;;10352700;28;20312;-67
2023/01/28 18:11:14;;;;;;;8.73;5.10;;;2.30;99.90;;;;;;10356237;28;20335;-68
2023/01/28 18:16:18;;;;;;;7.20;4.87;;;2.30;99.90;;;;;;10352219;28;20230;-67
2023/01/28 18:21:34;;;;;;;7.37;4.63;;;2.30;99.90;;;;;;10357607;28;20229;-69
2023/01/28 18:26:36;;;;;;;8.17;5.57;;;2.30;99.90;;;;;;10359213;28;20316;-68
2023/01/28 18:31:36;;;;;;;6.57;4.90;;;2.20;99.90;;;;;;10351266;28;20261;-67
2023/01/28 18:36:37;;;;;;;5.77;4.70;;;2.20;99.90;;;;;;10360495;28;20325;-68
2023/01/28 18:41:39;;;;;;;6.57;4.97;;;2.20;99.90;;;;;;10359066;28;20306;-68
2023/01/28 18:46:40;;;;;;;6.43;5.17;;;2.10;99.90;;;;;;10353084;28;20218;-67
2023/01/28 18:51:42;;;;;;;6.73;5.83;;;2.10;99.90;;;;;;10357178;28;20316;-68
2023/01/28 18:56:43;;;;;;;6.93;5.57;;;2.10;99.90;;;;;;10343687;28;20226;-68
2023/01/28 19:01:46;;;;;;;8.47;5.87;;;2.20;99.90;;;;;;10341907;28;20229;-67
2023/01/28 19:06:47;;;;;;;8.50;5.70;;;2.20;99.90;;;;;;10354974;28;20247;-67
2023/01/28 19:11:49;;;;;;;6.60;5.13;;;2.30;99.90;;;;;;10337609;28;20317;-68
2023/01/28 19:16:50;;;;;;;7.07;6.00;;;2.20;99.90;;;;;;10354003;28;20232;-67
2023/01/28 19:21:52;;;;;;;6.20;5.23;;;2.20;99.90;;;;;;10351202;28;20229;-68
2023/01/28 19:26:52;;;;;;;6.93;5.47;;;2.20;99.90;;;;;;10351205;28;20620;-68
2023/01/28 19:31:53;;;;;;;7.33;5.30;;;2.20;99.90;;;;;;10354501;28;20329;-68
2023/01/28 19:36:54;;;;;;;6.87;5.43;;;2.20;99.90;;;;;;10349075;28;20237;-68
2023/01/28 19:41:54;;;;;;;7.93;5.97;;;2.20;99.90;;;;;;10350361;28;20236;-68
2023/01/28 19:46:55;;;;;;;7.57;5.50;;;2.20;99.90;;;;;;10357592;28;20226;-68
2023/01/28 19:51:56;;;;;;;7.10;5.03;;;2.20;99.90;;;;;;10332855;28;20311;-69
2023/01/28 19:56:57;;;;;;;8.07;5.50;;;2.10;99.90;;;;;;10347515;28;20279;-68
2023/01/28 20:01:58;;;;;;;7.43;5.67;;;2.20;99.90;;;;;;10349909;28;20272;-69
2023/01/28 20:06:58;;;;;;;9.27;5.90;;;2.10;99.90;;;;;;10348893;28;20308;-67
2023/01/28 20:11:59;;;;;;;8.57;5.97;;;2.10;99.90;;;;;;10360342;28;20852;-68
2023/01/28 20:16:59;;;;;;;8.83;6.40;;;2.10;99.90;;;;;;10347645;28;20286;-70
2023/01/28 20:22:00;;;;;;;11.87;7.40;;;2.20;99.90;;;;;;10340412;28;20704;-70
2023/01/28 20:27:00;;;;;;;10.50;7.80;;;2.20;99.90;;;;;;10352093;28;20213;-68
2023/01/28 20:32:01;;;;;;;8.63;7.13;;;2.20;99.90;;;;;;10354950;28;20233;-67
2023/01/28 20:37:02;;;;;;;6.53;5.83;;;2.20;99.90;;;;;;10346609;28;20238;-70
2023/01/28 20:42:05;;;;;;;9.67;6.93;;;2.20;99.90;;;;;;10349135;28;20287;-71
2023/01/28 20:47:05;;;;;;;11.23;9.00;;;2.20;99.90;;;;;;10325965;28;20235;-68
2023/01/28 20:52:06;;;;;;;9.27;7.00;;;2.20;99.90;;;;;;10352072;28;20229;-68
2023/01/28 20:57:06;;;;;;;12.23;7.17;;;2.20;99.90;;;;;;10345826;28;20222;-67
2023/01/28 21:02:09;;;;;;;7.60;6.43;;;2.20;99.90;;;;;;10349204;28;20750;-67
2023/01/28 21:07:11;;;;;;;9.23;7.23;;;2.20;99.90;;;;;;10344414;28;20603;-68
2023/01/28 21:12:12;;;;;;;10.60;7.73;;;2.20;99.90;;;;;;10349599;28;20275;-68
2023/01/28 21:17:12;;;;;;;9.27;6.90;;;2.20;99.90;;;;;;10350287;28;20274;-68
2023/01/28 21:22:13;;;;;;;12.87;7.50;;;2.20;99.90;;;;;;10334095;28;20230;-68
2023/01/28 21:27:13;;;;;;;10.47;6.80;;;2.20;99.90;;;;;;10349561;28;20240;-67
2023/01/28 21:32:15;;;;;;;9.53;6.80;;;2.20;99.90;;;;;;10351049;28;20767;-68
2023/01/28 21:37:20;;;;;;;10.80;7.33;;;2.10;99.90;;;;;;10333534;28;20599;-68
2023/01/28 21:42:21;;;;;;;9.63;6.90;;;2.10;99.90;;;;;;10349344;28;20263;-68
2023/01/28 21:47:22;;;;;;;9.47;6.67;;;2.10;99.90;;;;;;10351058;28;20225;-68
2023/01/28 21:52:22;;;;;;;10.27;7.63;;;2.10;99.90;;;;;;10333269;28;20234;-69
2023/01/28 21:57:26;;;;;;;10.63;6.83;;;2.10;99.90;;;;;;10350344;28;20927;-70
2023/01/28 22:02:26;;;;;;;9.07;6.50;;;2.10;99.90;;;;;;10338154;28;20225;-70
2023/01/28 22:07:27;;;;;;;8.43;5.97;;;2.10;99.90;;;;;;10342936;28;20252;-69
2023/01/28 22:12:28;;;;;;;8.73;6.47;;;2.10;99.90;;;;;;10348665;28;20869;-69
2023/01/28 22:17:28;;;;;;;8.30;6.63;;;2.10;99.90;;;;;;10343236;28;20222;-69
2023/01/28 22:22:29;;;;;;;9.47;5.97;;;2.00;99.90;;;;;;10344732;28;20260;-70
2023/01/28 22:27:31;;;;;;;9.20;6.10;;;2.00;99.90;;;;;;10355947;28;20229;-70
2023/01/28 22:32:31;;;;;;;9.37;7.17;;;1.90;99.90;;;;;;10357040;28;20365;-71
2023/01/28 22:37:32;;;;;;;8.63;6.80;;;1.90;99.90;;;;;;10353092;28;20369;-69
2023/01/28 22:42:33;;;;;;;9.57;6.33;;;1.90;99.90;;;;;;10354247;28;20649;-71
2023/01/28 22:47:34;;;;;;;8.20;5.97;;;1.90;99.90;;;;;;10349828;28;20221;-70
2023/01/28 22:52:34;;;;;;;7.17;5.73;;;1.90;99.90;;;;;;10361078;28;20229;-71
2023/01/28 22:57:35;;;;;;;9.77;7.10;;;1.80;99.90;;;;;;10356744;28;20237;-70
2023/01/28 23:02:36;;;;;;;10.03;7.13;;;1.90;99.90;;;;;;10353699;28;20279;-70
2023/01/28 23:07:37;;;;;;;8.67;6.10;;;1.90;99.90;;;;;;10346867;28;20217;-68
2023/01/28 23:12:38;;;;;;;7.80;5.73;;;1.90;99.90;;;;;;10353167;28;20326;-68
2023/01/28 23:28:17;;;;;;;6.40;4.97;;;1.80;99.90;;;;;;10354304;28;20228;-68
2023/01/28 23:33:17;;;;;;;7.43;4.97;;;1.80;99.90;;;;;;10345109;28;20229;-68
2023/01/28 23:38:18;;;;;;;7.33;5.73;;;1.80;99.90;;;;;;10353939;28;20221;-68
2023/01/28 23:43:18;;;;;;;9.53;5.93;;;1.80;99.90;;;;;;10345826;28;20236;-68
2023/01/28 23:48:19;;;;;;;7.57;5.50;;;1.80;99.90;;;;;;10344645;28;20701;-69
2023/01/28 23:53:20;;;;;;;9.03;5.60;;;1.80;99.90;;;;;;10353285;28;20827;-68
2023/01/28 23:58:20;;;;;;;6.27;5.57;;;1.80;99.90;;;;;;10350282;28;20630;-68
